Terminal Aerodrome Forecast
Issued by NWS

Home | Current Version | Previous Version | Text Only | Print | Product List | Glossary On
Versions: 1 2 3 4 5 6 7 8 9 10 11 12 13 14 15 16 17 18 19
370
FTUS46 KSGX 191344 AAB
TAFTRM
TAF AMD
KTRM 191344Z 1914/2012 VRB05KT 2SM BR FEW035
      TEMPO 1914/1916 1/2SM FG BKN010
     FM191630 VRB05KT P6SM SKC
     FM200100 33010KT P6SM SCT250
     FM200800 VRB05KT P6SM BKN200=

USA.gov is the U.S. government's official web portal to all federal, state and local government web resources and services.